sensor_id;sensor_type;location;lat;lon;timestamp;P1;durP1;ratioP1;P2;durP2;ratioP2
40997;SDS011;26740;45.944;12.480;2023-05-07T00:00:43;8.65;;;7.00;;
40997;SDS011;26740;45.944;12.480;2023-05-07T00:03:09;7.15;;;6.22;;
40997;SDS011;26740;45.944;12.480;2023-05-07T00:05:34;6.75;;;6.25;;
40997;SDS011;26740;45.944;12.480;2023-05-07T00:08:00;8.80;;;6.55;;
40997;SDS011;26740;45.944;12.480;2023-05-07T00:10:26;10.15;;;7.35;;
40997;SDS011;26740;45.944;12.480;2023-05-07T00:12:51;7.68;;;6.50;;
40997;SDS011;26740;45.944;12.480;2023-05-07T00:15:16;7.53;;;6.70;;
40997;SDS011;26740;45.944;12.480;2023-05-07T00:17:42;8.15;;;7.20;;
40997;SDS011;26740;45.944;12.480;2023-05-07T00:20:07;7.93;;;6.25;;
40997;SDS011;26740;45.944;12.480;2023-05-07T00:22:33;8.30;;;6.97;;
40997;SDS011;26740;45.944;12.480;2023-05-07T00:24:58;7.97;;;6.40;;
40997;SDS011;26740;45.944;12.480;2023-05-07T00:27:24;6.65;;;6.15;;
40997;SDS011;26740;45.944;12.480;2023-05-07T00:29:49;6.50;;;5.90;;
40997;SDS011;26740;45.944;12.480;2023-05-07T00:32:15;7.78;;;6.40;;
40997;SDS011;26740;45.944;12.480;2023-05-07T00:34:40;8.27;;;6.82;;
40997;SDS011;26740;45.944;12.480;2023-05-07T00:37:06;10.40;;;7.18;;
40997;SDS011;26740;45.944;12.480;2023-05-07T00:39:33;7.80;;;7.03;;
40997;SDS011;26740;45.944;12.480;2023-05-07T00:41:58;8.18;;;7.45;;
40997;SDS011;26740;45.944;12.480;2023-05-07T00:44:23;9.30;;;7.93;;
40997;SDS011;26740;45.944;12.480;2023-05-07T00:46:49;9.52;;;8.05;;
40997;SDS011;26740;45.944;12.480;2023-05-07T00:49:15;10.90;;;8.40;;
40997;SDS011;26740;45.944;12.480;2023-05-07T00:51:40;7.88;;;7.15;;
40997;SDS011;26740;45.944;12.480;2023-05-07T00:54:06;9.00;;;8.20;;
40997;SDS011;26740;45.944;12.480;2023-05-07T00:56:31;8.90;;;8.05;;
40997;SDS011;26740;45.944;12.480;2023-05-07T00:58:56;8.77;;;7.50;;
40997;SDS011;26740;45.944;12.480;2023-05-07T01:01:22;9.35;;;8.40;;
40997;SDS011;26740;45.944;12.480;2023-05-07T01:03:47;8.98;;;8.07;;
40997;SDS011;26740;45.944;12.480;2023-05-07T01:06:13;9.45;;;8.10;;
40997;SDS011;26740;45.944;12.480;2023-05-07T01:08:41;7.38;;;6.78;;
40997;SDS011;26740;45.944;12.480;2023-05-07T01:11:07;9.52;;;7.40;;
40997;SDS011;26740;45.944;12.480;2023-05-07T01:13:33;7.65;;;7.05;;
40997;SDS011;26740;45.944;12.480;2023-05-07T01:15:59;8.40;;;7.70;;
40997;SDS011;26740;45.944;12.480;2023-05-07T01:18:25;10.35;;;7.00;;
40997;SDS011;26740;45.944;12.480;2023-05-07T01:20:51;8.48;;;6.82;;
40997;SDS011;26740;45.944;12.480;2023-05-07T01:23:17;11.50;;;7.93;;
40997;SDS011;26740;45.944;12.480;2023-05-07T01:25:43;9.55;;;7.00;;
40997;SDS011;26740;45.944;12.480;2023-05-07T01:28:08;8.48;;;7.68;;
40997;SDS011;26740;45.944;12.480;2023-05-07T01:30:33;9.15;;;7.47;;
40997;SDS011;26740;45.944;12.480;2023-05-07T01:33:01;8.63;;;7.82;;
40997;SDS011;26740;45.944;12.480;2023-05-07T01:35:30;8.70;;;7.45;;
40997;SDS011;26740;45.944;12.480;2023-05-07T01:37:57;9.10;;;7.47;;
40997;SDS011;26740;45.944;12.480;2023-05-07T01:40:23;9.02;;;8.13;;
40997;SDS011;26740;45.944;12.480;2023-05-07T01:42:49;8.63;;;7.93;;
40997;SDS011;26740;45.944;12.480;2023-05-07T01:45:15;9.50;;;8.05;;
40997;SDS011;26740;45.944;12.480;2023-05-07T01:47:40;11.10;;;8.60;;
40997;SDS011;26740;45.944;12.480;2023-05-07T01:50:06;8.10;;;7.40;;
40997;SDS011;26740;45.944;12.480;2023-05-07T01:52:33;9.43;;;8.02;;
40997;SDS011;26740;45.944;12.480;2023-05-07T01:54:59;9.40;;;7.68;;
40997;SDS011;26740;45.944;12.480;2023-05-07T01:57:24;8.80;;;7.90;;
40997;SDS011;26740;45.944;12.480;2023-05-07T01:59:50;7.78;;;7.18;;
40997;SDS011;26740;45.944;12.480;2023-05-07T02:02:15;9.05;;;7.18;;
40997;SDS011;26740;45.944;12.480;2023-05-07T02:04:41;8.60;;;7.80;;
40997;SDS011;26740;45.944;12.480;2023-05-07T02:07:06;8.50;;;7.25;;
40997;SDS011;26740;45.944;12.480;2023-05-07T02:09:31;8.90;;;7.07;;
40997;SDS011;26740;45.944;12.480;2023-05-07T02:11:57;8.75;;;7.93;;
40997;SDS011;26740;45.944;12.480;2023-05-07T02:14:22;9.93;;;7.32;;
40997;SDS011;26740;45.944;12.480;2023-05-07T02:16:47;7.38;;;6.78;;
40997;SDS011;26740;45.944;12.480;2023-05-07T02:19:13;7.97;;;7.28;;
40997;SDS011;26740;45.944;12.480;2023-05-07T02:21:38;7.15;;;6.55;;
40997;SDS011;26740;45.944;12.480;2023-05-07T02:24:04;9.13;;;7.18;;
40997;SDS011;26740;45.944;12.480;2023-05-07T02:26:30;8.23;;;7.53;;
40997;SDS011;26740;45.944;12.480;2023-05-07T02:28:55;8.38;;;7.53;;
40997;SDS011;26740;45.944;12.480;2023-05-07T02:31:20;8.02;;;7.18;;
40997;SDS011;26740;45.944;12.480;2023-05-07T02:33:46;7.45;;;6.75;;
40997;SDS011;26740;45.944;12.480;2023-05-07T02:36:11;9.73;;;7.68;;
40997;SDS011;26740;45.944;12.480;2023-05-07T02:38:37;9.45;;;8.15;;
40997;SDS011;26740;45.944;12.480;2023-05-07T02:41:02;9.05;;;8.20;;
40997;SDS011;26740;45.944;12.480;2023-05-07T02:43:28;8.15;;;7.35;;
40997;SDS011;26740;45.944;12.480;2023-05-07T02:46:03;8.57;;;7.88;;
40997;SDS011;26740;45.944;12.480;2023-05-07T02:48:29;10.27;;;7.15;;
40997;SDS011;26740;45.944;12.480;2023-05-07T02:50:55;8.18;;;7.50;;
40997;SDS011;26740;45.944;12.480;2023-05-07T02:53:20;8.85;;;7.60;;
40997;SDS011;26740;45.944;12.480;2023-05-07T02:55:46;8.80;;;7.90;;
40997;SDS011;26740;45.944;12.480;2023-05-07T02:58:11;10.20;;;8.80;;
40997;SDS011;26740;45.944;12.480;2023-05-07T03:00:36;9.48;;;8.57;;
40997;SDS011;26740;45.944;12.480;2023-05-07T03:03:02;8.00;;;7.03;;
40997;SDS011;26740;45.944;12.480;2023-05-07T03:05:27;9.20;;;8.27;;
40997;SDS011;26740;45.944;12.480;2023-05-07T03:07:52;15.90;;;8.60;;
40997;SDS011;26740;45.944;12.480;2023-05-07T03:10:18;10.02;;;7.93;;
40997;SDS011;26740;45.944;12.480;2023-05-07T03:12:43;8.27;;;7.47;;
40997;SDS011;26740;45.944;12.480;2023-05-07T03:15:09;9.18;;;8.15;;
40997;SDS011;26740;45.944;12.480;2023-05-07T03:17:35;8.57;;;7.70;;
40997;SDS011;26740;45.944;12.480;2023-05-07T03:20:01;8.93;;;7.78;;
40997;SDS011;26740;45.944;12.480;2023-05-07T03:22:26;8.30;;;7.50;;
40997;SDS011;26740;45.944;12.480;2023-05-07T03:24:51;11.60;;;7.45;;
40997;SDS011;26740;45.944;12.480;2023-05-07T03:27:17;7.50;;;6.70;;
40997;SDS011;26740;45.944;12.480;2023-05-07T03:29:42;8.80;;;7.65;;
40997;SDS011;26740;45.944;12.480;2023-05-07T03:32:07;11.30;;;8.02;;
40997;SDS011;26740;45.944;12.480;2023-05-07T03:34:33;8.52;;;7.53;;
40997;SDS011;26740;45.944;12.480;2023-05-07T03:36:58;7.72;;;7.05;;
40997;SDS011;26740;45.944;12.480;2023-05-07T03:39:23;8.30;;;7.57;;
40997;SDS011;26740;45.944;12.480;2023-05-07T03:41:49;9.13;;;7.75;;
40997;SDS011;26740;45.944;12.480;2023-05-07T03:44:14;7.68;;;6.97;;
40997;SDS011;26740;45.944;12.480;2023-05-07T03:46:40;7.80;;;7.05;;
40997;SDS011;26740;45.944;12.480;2023-05-07T03:49:05;7.85;;;6.07;;
40997;SDS011;26740;45.944;12.480;2023-05-07T03:51:30;8.93;;;7.78;;
40997;SDS011;26740;45.944;12.480;2023-05-07T03:53:56;8.10;;;7.40;;
40997;SDS011;26740;45.944;12.480;2023-05-07T03:56:22;9.15;;;7.95;;
40997;SDS011;26740;45.944;12.480;2023-05-07T03:58:48;7.70;;;6.93;;
40997;SDS011;26740;45.944;12.480;2023-05-07T04:01:13;8.38;;;6.65;;
40997;SDS011;26740;45.944;12.480;2023-05-07T04:03:39;7.85;;;6.88;;
40997;SDS011;26740;45.944;12.480;2023-05-07T04:06:04;10.75;;;7.05;;
40997;SDS011;26740;45.944;12.480;2023-05-07T04:08:29;8.00;;;7.05;;
40997;SDS011;26740;45.944;12.480;2023-05-07T04:10:58;7.55;;;6.78;;
40997;SDS011;26740;45.944;12.480;2023-05-07T04:13:24;8.32;;;6.97;;
40997;SDS011;26740;45.944;12.480;2023-05-07T04:15:50;9.65;;;6.60;;
40997;SDS011;26740;45.944;12.480;2023-05-07T04:18:15;8.93;;;6.93;;
40997;SDS011;26740;45.944;12.480;2023-05-07T04:20:41;7.25;;;6.65;;
40997;SDS011;26740;45.944;12.480;2023-05-07T04:23:06;7.55;;;6.63;;
40997;SDS011;26740;45.944;12.480;2023-05-07T04:25:32;6.97;;;6.35;;
40997;SDS011;26740;45.944;12.480;2023-05-07T04:27:58;6.80;;;6.05;;
40997;SDS011;26740;45.944;12.480;2023-05-07T04:30:23;6.60;;;6.13;;
40997;SDS011;26740;45.944;12.480;2023-05-07T04:32:49;6.63;;;5.72;;
40997;SDS011;26740;45.944;12.480;2023-05-07T04:35:14;7.47;;;6.72;;
40997;SDS011;26740;45.944;12.480;2023-05-07T04:37:40;9.82;;;7.00;;
40997;SDS011;26740;45.944;12.480;2023-05-07T04:40:05;6.22;;;5.70;;
40997;SDS011;26740;45.944;12.480;2023-05-07T04:42:31;12.15;;;6.40;;
40997;SDS011;26740;45.944;12.480;2023-05-07T04:44:56;14.02;;;5.78;;
40997;SDS011;26740;45.944;12.480;2023-05-07T04:47:21;6.47;;;5.88;;
40997;SDS011;26740;45.944;12.480;2023-05-07T04:49:47;7.25;;;6.38;;
40997;SDS011;26740;45.944;12.480;2023-05-07T04:52:12;6.53;;;5.93;;
40997;SDS011;26740;45.944;12.480;2023-05-07T04:54:38;6.28;;;5.72;;
40997;SDS011;26740;45.944;12.480;2023-05-07T04:57:03;6.45;;;5.85;;
40997;SDS011;26740;45.944;12.480;2023-05-07T04:59:29;6.40;;;5.88;;
40997;SDS011;26740;45.944;12.480;2023-05-07T05:01:55;6.65;;;6.05;;
40997;SDS011;26740;45.944;12.480;2023-05-07T05:04:20;8.38;;;6.57;;
40997;SDS011;26740;45.944;12.480;2023-05-07T05:06:46;5.57;;;5.13;;
40997;SDS011;26740;45.944;12.480;2023-05-07T05:09:11;5.82;;;5.30;;
40997;SDS011;26740;45.944;12.480;2023-05-07T05:11:36;5.97;;;5.32;;
40997;SDS011;26740;45.944;12.480;2023-05-07T05:14:02;7.03;;;5.25;;
40997;SDS011;26740;45.944;12.480;2023-05-07T05:16:27;5.55;;;4.85;;
40997;SDS011;26740;45.944;12.480;2023-05-07T05:18:52;5.72;;;4.75;;
40997;SDS011;26740;45.944;12.480;2023-05-07T05:21:19;5.50;;;5.03;;
40997;SDS011;26740;45.944;12.480;2023-05-07T05:23:45;5.60;;;5.05;;
40997;SDS011;26740;45.944;12.480;2023-05-07T05:26:10;5.75;;;5.25;;
40997;SDS011;26740;45.944;12.480;2023-05-07T05:28:36;7.07;;;5.03;;
40997;SDS011;26740;45.944;12.480;2023-05-07T05:31:01;7.70;;;5.10;;
40997;SDS011;26740;45.944;12.480;2023-05-07T05:33:27;5.10;;;4.70;;
40997;SDS011;26740;45.944;12.480;2023-05-07T05:35:53;6.47;;;5.40;;
40997;SDS011;26740;45.944;12.480;2023-05-07T05:38:19;5.82;;;5.32;;
40997;SDS011;26740;45.944;12.480;2023-05-07T05:40:45;5.60;;;5.10;;
40997;SDS011;26740;45.944;12.480;2023-05-07T05:43:11;5.47;;;5.07;;
40997;SDS011;26740;45.944;12.480;2023-05-07T05:45:36;6.78;;;4.53;;
40997;SDS011;26740;45.944;12.480;2023-05-07T05:48:02;6.22;;;4.72;;
40997;SDS011;26740;45.944;12.480;2023-05-07T05:50:27;8.02;;;4.68;;
40997;SDS011;26740;45.944;12.480;2023-05-07T05:52:52;4.30;;;3.83;;
40997;SDS011;26740;45.944;12.480;2023-05-07T05:55:18;7.05;;;4.30;;
40997;SDS011;26740;45.944;12.480;2023-05-07T05:57:43;5.13;;;4.63;;
40997;SDS011;26740;45.944;12.480;2023-05-07T06:00:09;5.60;;;4.63;;
40997;SDS011;26740;45.944;12.480;2023-05-07T06:02:34;11.63;;;4.50;;
40997;SDS011;26740;45.944;12.480;2023-05-07T06:04:59;6.32;;;5.72;;
40997;SDS011;26740;45.944;12.480;2023-05-07T06:07:25;5.45;;;4.93;;
40997;SDS011;26740;45.944;12.480;2023-05-07T06:09:50;5.68;;;4.50;;
40997;SDS011;26740;45.944;12.480;2023-05-07T06:12:16;5.72;;;5.03;;
40997;SDS011;26740;45.944;12.480;2023-05-07T06:14:42;6.55;;;5.03;;
40997;SDS011;26740;45.944;12.480;2023-05-07T06:17:08;5.35;;;4.95;;
40997;SDS011;26740;45.944;12.480;2023-05-07T06:19:33;6.18;;;5.50;;
40997;SDS011;26740;45.944;12.480;2023-05-07T06:21:58;5.75;;;4.80;;
40997;SDS011;26740;45.944;12.480;2023-05-07T06:24:26;5.97;;;5.45;;
40997;SDS011;26740;45.944;12.480;2023-05-07T06:26:51;7.22;;;5.35;;
40997;SDS011;26740;45.944;12.480;2023-05-07T06:29:17;7.20;;;5.35;;
40997;SDS011;26740;45.944;12.480;2023-05-07T06:31:42;6.72;;;5.90;;
40997;SDS011;26740;45.944;12.480;2023-05-07T06:34:07;12.20;;;6.63;;
40997;SDS011;26740;45.944;12.480;2023-05-07T06:36:33;6.05;;;5.55;;
40997;SDS011;26740;45.944;12.480;2023-05-07T06:38:58;7.03;;;5.68;;
40997;SDS011;26740;45.944;12.480;2023-05-07T06:41:23;6.30;;;5.75;;
40997;SDS011;26740;45.944;12.480;2023-05-07T06:43:49;9.98;;;5.90;;
40997;SDS011;26740;45.944;12.480;2023-05-07T06:46:14;5.75;;;5.35;;
40997;SDS011;26740;45.944;12.480;2023-05-07T06:48:40;7.68;;;6.93;;
40997;SDS011;26740;45.944;12.480;2023-05-07T06:51:05;6.63;;;6.03;;
40997;SDS011;26740;45.944;12.480;2023-05-07T06:53:30;6.20;;;5.70;;
40997;SDS011;26740;45.944;12.480;2023-05-07T06:55:56;6.78;;;5.55;;
40997;SDS011;26740;45.944;12.480;2023-05-07T06:58:21;5.78;;;5.28;;
40997;SDS011;26740;45.944;12.480;2023-05-07T07:00:47;7.50;;;5.45;;
40997;SDS011;26740;45.944;12.480;2023-05-07T07:03:12;6.65;;;5.00;;
40997;SDS011;26740;45.944;12.480;2023-05-07T07:05:37;7.57;;;5.47;;
40997;SDS011;26740;45.944;12.480;2023-05-07T07:08:03;5.40;;;4.97;;
40997;SDS011;26740;45.944;12.480;2023-05-07T07:10:28;6.70;;;4.57;;
40997;SDS011;26740;45.944;12.480;2023-05-07T07:12:54;6.03;;;5.50;;
40997;SDS011;26740;45.944;12.480;2023-05-07T07:15:19;7.53;;;5.18;;
40997;SDS011;26740;45.944;12.480;2023-05-07T07:17:45;9.70;;;5.03;;
40997;SDS011;26740;45.944;12.480;2023-05-07T07:20:11;4.30;;;4.00;;
40997;SDS011;26740;45.944;12.480;2023-05-07T07:22:36;6.38;;;5.50;;
40997;SDS011;26740;45.944;12.480;2023-05-07T07:25:02;9.73;;;5.25;;
40997;SDS011;26740;45.944;12.480;2023-05-07T07:27:27;13.60;;;5.15;;
40997;SDS011;26740;45.944;12.480;2023-05-07T07:29:52;7.72;;;5.60;;
40997;SDS011;26740;45.944;12.480;2023-05-07T07:32:18;5.32;;;4.95;;
40997;SDS011;26740;45.944;12.480;2023-05-07T07:34:43;5.82;;;5.03;;
40997;SDS011;26740;45.944;12.480;2023-05-07T07:37:08;6.35;;;5.75;;
40997;SDS011;26740;45.944;12.480;2023-05-07T07:39:34;6.43;;;5.32;;
40997;SDS011;26740;45.944;12.480;2023-05-07T07:42:00;5.40;;;5.00;;
40997;SDS011;26740;45.944;12.480;2023-05-07T07:44:26;5.22;;;4.72;;
40997;SDS011;26740;45.944;12.480;2023-05-07T07:46:51;5.40;;;4.90;;
40997;SDS011;26740;45.944;12.480;2023-05-07T07:49:16;4.82;;;4.43;;
40997;SDS011;26740;45.944;12.480;2023-05-07T07:51:42;7.10;;;4.72;;
40997;SDS011;26740;45.944;12.480;2023-05-07T07:54:07;4.63;;;4.30;;
40997;SDS011;26740;45.944;12.480;2023-05-07T07:56:33;5.95;;;4.10;;
40997;SDS011;26740;45.944;12.480;2023-05-07T08:02:03;4.32;;;2.80;;
40997;SDS011;26740;45.944;12.480;2023-05-07T08:04:29;4.93;;;3.90;;
40997;SDS011;26740;45.944;12.480;2023-05-07T08:09:58;3.92;;;2.50;;
40997;SDS011;26740;45.944;12.480;2023-05-07T08:12:23;3.10;;;2.83;;
40997;SDS011;26740;45.944;12.480;2023-05-07T08:14:48;2.70;;;2.50;;
40997;SDS011;26740;45.944;12.480;2023-05-07T08:17:14;2.65;;;2.17;;
40997;SDS011;26740;45.944;12.480;2023-05-07T08:19:41;2.85;;;1.98;;
40997;SDS011;26740;45.944;12.480;2023-05-07T08:22:06;4.43;;;2.45;;
40997;SDS011;26740;45.944;12.480;2023-05-07T08:24:32;2.50;;;2.30;;
40997;SDS011;26740;45.944;12.480;2023-05-07T08:26:57;2.20;;;2.03;;
40997;SDS011;26740;45.944;12.480;2023-05-07T08:29:22;4.07;;;2.50;;
40997;SDS011;26740;45.944;12.480;2023-05-07T08:31:48;4.75;;;2.85;;
40997;SDS011;26740;45.944;12.480;2023-05-07T08:34:13;4.57;;;2.45;;
40997;SDS011;26740;45.944;12.480;2023-05-07T08:36:38;6.85;;;2.20;;
40997;SDS011;26740;45.944;12.480;2023-05-07T08:39:06;1.85;;;1.75;;
40997;SDS011;26740;45.944;12.480;2023-05-07T08:41:32;2.75;;;2.10;;
40997;SDS011;26740;45.944;12.480;2023-05-07T08:43:58;5.63;;;2.35;;
40997;SDS011;26740;45.944;12.480;2023-05-07T08:46:25;3.40;;;1.75;;
40997;SDS011;26740;45.944;12.480;2023-05-07T08:48:50;3.13;;;1.77;;
40997;SDS011;26740;45.944;12.480;2023-05-07T08:51:17;2.55;;;1.85;;
40997;SDS011;26740;45.944;12.480;2023-05-07T08:53:43;6.53;;;1.73;;
40997;SDS011;26740;45.944;12.480;2023-05-07T08:56:09;1.95;;;1.63;;
40997;SDS011;26740;45.944;12.480;2023-05-07T08:58:34;1.55;;;1.40;;
40997;SDS011;26740;45.944;12.480;2023-05-07T09:01:01;1.80;;;1.33;;
40997;SDS011;26740;45.944;12.480;2023-05-07T09:03:28;6.78;;;1.38;;
40997;SDS011;26740;45.944;12.480;2023-05-07T09:05:53;1.67;;;1.27;;
40997;SDS011;26740;45.944;12.480;2023-05-07T09:08:19;2.65;;;2.45;;
40997;SDS011;26740;45.944;12.480;2023-05-07T09:10:49;5.38;;;1.75;;
40997;SDS011;26740;45.944;12.480;2023-05-07T09:13:14;1.83;;;1.58;;
40997;SDS011;26740;45.944;12.480;2023-05-07T09:15:40;4.05;;;1.80;;
40997;SDS011;26740;45.944;12.480;2023-05-07T09:18:06;3.72;;;1.50;;
40997;SDS011;26740;45.944;12.480;2023-05-07T09:20:31;2.20;;;1.48;;
40997;SDS011;26740;45.944;12.480;2023-05-07T09:22:57;3.97;;;1.95;;
40997;SDS011;26740;45.944;12.480;2023-05-07T09:25:28;2.90;;;1.73;;
40997;SDS011;26740;45.944;12.480;2023-05-07T09:27:53;7.20;;;2.25;;
40997;SDS011;26740;45.944;12.480;2023-05-07T09:30:18;1.80;;;1.50;;
40997;SDS011;26740;45.944;12.480;2023-05-07T09:32:44;2.05;;;1.70;;
40997;SDS011;26740;45.944;12.480;2023-05-07T09:35:18;3.03;;;1.88;;
40997;SDS011;26740;45.944;12.480;2023-05-07T09:37:46;1.77;;;1.67;;
40997;SDS011;26740;45.944;12.480;2023-05-07T09:40:27;1.98;;;1.70;;
40997;SDS011;26740;45.944;12.480;2023-05-07T09:42:53;1.73;;;1.60;;
40997;SDS011;26740;45.944;12.480;2023-05-07T09:45:22;4.28;;;1.63;;
40997;SDS011;26740;45.944;12.480;2023-05-07T09:47:48;8.88;;;2.13;;
40997;SDS011;26740;45.944;12.480;2023-05-07T09:50:15;3.58;;;1.40;;
40997;SDS011;26740;45.944;12.480;2023-05-07T09:52:41;2.50;;;1.48;;
40997;SDS011;26740;45.944;12.480;2023-05-07T09:55:07;5.30;;;2.00;;
40997;SDS011;26740;45.944;12.480;2023-05-07T09:57:34;2.10;;;1.90;;
40997;SDS011;26740;45.944;12.480;2023-05-07T09:59:59;4.43;;;2.00;;
40997;SDS011;26740;45.944;12.480;2023-05-07T10:02:27;2.25;;;1.33;;
40997;SDS011;26740;45.944;12.480;2023-05-07T10:04:55;2.88;;;1.30;;
40997;SDS011;26740;45.944;12.480;2023-05-07T10:07:20;1.52;;;1.42;;
40997;SDS011;26740;45.944;12.480;2023-05-07T10:09:46;3.20;;;1.55;;
40997;SDS011;26740;45.944;12.480;2023-05-07T10:12:11;4.13;;;1.15;;
40997;SDS011;26740;45.944;12.480;2023-05-07T10:14:37;2.95;;;1.50;;
40997;SDS011;26740;45.944;12.480;2023-05-07T10:17:03;2.22;;;1.35;;
40997;SDS011;26740;45.944;12.480;2023-05-07T10:19:29;1.70;;;1.60;;
40997;SDS011;26740;45.944;12.480;2023-05-07T10:21:55;2.10;;;1.63;;
40997;SDS011;26740;45.944;12.480;2023-05-07T10:24:26;1.80;;;1.70;;
40997;SDS011;26740;45.944;12.480;2023-05-07T10:26:53;3.05;;;1.95;;
40997;SDS011;26740;45.944;12.480;2023-05-07T10:34:45;3.72;;;2.25;;
40997;SDS011;26740;45.944;12.480;2023-05-07T10:37:12;4.88;;;2.33;;
40997;SDS011;26740;45.944;12.480;2023-05-07T10:39:38;2.78;;;2.45;;
40997;SDS011;26740;45.944;12.480;2023-05-07T10:42:09;5.57;;;2.30;;
40997;SDS011;26740;45.944;12.480;2023-05-07T10:44:35;3.78;;;2.20;;
40997;SDS011;26740;45.944;12.480;2023-05-07T10:49:30;3.65;;;2.20;;
40997;SDS011;26740;45.944;12.480;2023-05-07T10:54:36;3.67;;;2.10;;
40997;SDS011;26740;45.944;12.480;2023-05-07T10:57:32;3.67;;;2.25;;
40997;SDS011;26740;45.944;12.480;2023-05-07T10:59:47;4.82;;;2.85;;
40997;SDS011;26740;45.944;12.480;2023-05-07T11:02:12;4.35;;;2.40;;
40997;SDS011;26740;45.944;12.480;2023-05-07T11:04:39;4.18;;;2.25;;
40997;SDS011;26740;45.944;12.480;2023-05-07T11:12:12;3.80;;;2.58;;
40997;SDS011;26740;45.944;12.480;2023-05-07T11:17:07;2.90;;;1.67;;
40997;SDS011;26740;45.944;12.480;2023-05-07T11:19:49;3.78;;;2.00;;
40997;SDS011;26740;45.944;12.480;2023-05-07T11:24:55;4.78;;;1.33;;
40997;SDS011;26740;45.944;12.480;2023-05-07T11:27:23;4.50;;;1.95;;
40997;SDS011;26740;45.944;12.480;2023-05-07T11:29:49;2.78;;;1.60;;
40997;SDS011;26740;45.944;12.480;2023-05-07T11:32:15;4.20;;;2.05;;
40997;SDS011;26740;45.944;12.480;2023-05-07T11:34:41;2.45;;;2.20;;
40997;SDS011;26740;45.944;12.480;2023-05-07T11:37:07;3.38;;;2.25;;
40997;SDS011;26740;45.944;12.480;2023-05-07T11:39:33;2.38;;;1.58;;
40997;SDS011;26740;45.944;12.480;2023-05-07T11:41:59;4.28;;;1.92;;
40997;SDS011;26740;45.944;12.480;2023-05-07T11:44:24;3.50;;;2.03;;
40997;SDS011;26740;45.944;12.480;2023-05-07T11:46:50;5.15;;;1.92;;
40997;SDS011;26740;45.944;12.480;2023-05-07T11:49:16;2.42;;;1.92;;
40997;SDS011;26740;45.944;12.480;2023-05-07T11:51:41;4.18;;;1.90;;
40997;SDS011;26740;45.944;12.480;2023-05-07T11:54:08;1.77;;;1.63;;
40997;SDS011;26740;45.944;12.480;2023-05-07T11:56:35;3.67;;;1.80;;
40997;SDS011;26740;45.944;12.480;2023-05-07T11:59:00;1.60;;;1.35;;
40997;SDS011;26740;45.944;12.480;2023-05-07T12:01:26;4.57;;;2.00;;
40997;SDS011;26740;45.944;12.480;2023-05-07T12:03:51;2.97;;;2.28;;
40997;SDS011;26740;45.944;12.480;2023-05-07T12:06:17;5.22;;;1.98;;
40997;SDS011;26740;45.944;12.480;2023-05-07T12:08:44;8.13;;;1.85;;
40997;SDS011;26740;45.944;12.480;2023-05-07T12:11:14;2.72;;;2.10;;
40997;SDS011;26740;45.944;12.480;2023-05-07T12:13:41;2.85;;;2.50;;
40997;SDS011;26740;45.944;12.480;2023-05-07T12:16:06;10.93;;;2.63;;
40997;SDS011;26740;45.944;12.480;2023-05-07T12:18:32;3.15;;;2.28;;
40997;SDS011;26740;45.944;12.480;2023-05-07T12:20:58;3.05;;;2.30;;
40997;SDS011;26740;45.944;12.480;2023-05-07T12:23:24;3.15;;;2.42;;
40997;SDS011;26740;45.944;12.480;2023-05-07T12:25:49;4.07;;;3.75;;
40997;SDS011;26740;45.944;12.480;2023-05-07T12:28:18;4.03;;;2.90;;
40997;SDS011;26740;45.944;12.480;2023-05-07T12:30:44;3.08;;;2.83;;
40997;SDS011;26740;45.944;12.480;2023-05-07T12:33:10;6.00;;;3.35;;
40997;SDS011;26740;45.944;12.480;2023-05-07T12:35:36;3.00;;;2.80;;
40997;SDS011;26740;45.944;12.480;2023-05-07T12:38:04;3.03;;;2.83;;
40997;SDS011;26740;45.944;12.480;2023-05-07T12:40:42;3.35;;;3.15;;
40997;SDS011;26740;45.944;12.480;2023-05-07T12:43:17;3.63;;;2.83;;
40997;SDS011;26740;45.944;12.480;2023-05-07T12:45:43;7.88;;;2.70;;
40997;SDS011;26740;45.944;12.480;2023-05-07T12:48:09;5.05;;;3.22;;
40997;SDS011;26740;45.944;12.480;2023-05-07T12:50:35;3.00;;;2.80;;
40997;SDS011;26740;45.944;12.480;2023-05-07T12:53:00;4.88;;;2.88;;
40997;SDS011;26740;45.944;12.480;2023-05-07T12:55:30;6.68;;;4.10;;
40997;SDS011;26740;45.944;12.480;2023-05-07T12:57:56;3.13;;;2.65;;
40997;SDS011;26740;45.944;12.480;2023-05-07T13:00:37;6.30;;;3.00;;
40997;SDS011;26740;45.944;12.480;2023-05-07T13:03:03;4.32;;;2.50;;
40997;SDS011;26740;45.944;12.480;2023-05-07T13:05:29;4.40;;;3.35;;
40997;SDS011;26740;45.944;12.480;2023-05-07T13:07:55;3.47;;;3.20;;
40997;SDS011;26740;45.944;12.480;2023-05-07T13:10:23;7.15;;;2.65;;
40997;SDS011;26740;45.944;12.480;2023-05-07T13:12:49;5.93;;;3.60;;
40997;SDS011;26740;45.944;12.480;2023-05-07T13:15:14;4.35;;;3.05;;
40997;SDS011;26740;45.944;12.480;2023-05-07T13:17:40;3.30;;;3.00;;
40997;SDS011;26740;45.944;12.480;2023-05-07T13:20:05;5.18;;;3.40;;
40997;SDS011;26740;45.944;12.480;2023-05-07T13:22:31;5.35;;;3.78;;
40997;SDS011;26740;45.944;12.480;2023-05-07T13:24:57;3.40;;;3.10;;
40997;SDS011;26740;45.944;12.480;2023-05-07T13:27:22;2.75;;;2.53;;
40997;SDS011;26740;45.944;12.480;2023-05-07T13:29:47;5.03;;;2.55;;
40997;SDS011;26740;45.944;12.480;2023-05-07T13:32:12;6.57;;;4.30;;
40997;SDS011;26740;45.944;12.480;2023-05-07T13:34:38;7.40;;;3.47;;
40997;SDS011;26740;45.944;12.480;2023-05-07T13:37:03;7.30;;;3.80;;
40997;SDS011;26740;45.944;12.480;2023-05-07T13:39:28;5.20;;;3.42;;
40997;SDS011;26740;45.944;12.480;2023-05-07T13:41:54;3.92;;;3.53;;
40997;SDS011;26740;45.944;12.480;2023-05-07T13:44:19;5.90;;;3.22;;
40997;SDS011;26740;45.944;12.480;2023-05-07T13:46:45;7.57;;;4.50;;
40997;SDS011;26740;45.944;12.480;2023-05-07T13:49:11;5.35;;;3.30;;
40997;SDS011;26740;45.944;12.480;2023-05-07T13:51:37;3.53;;;3.10;;
40997;SDS011;26740;45.944;12.480;2023-05-07T13:54:03;3.28;;;3.00;;
40997;SDS011;26740;45.944;12.480;2023-05-07T13:56:29;4.70;;;3.13;;
40997;SDS011;26740;45.944;12.480;2023-05-07T13:58:56;4.13;;;3.72;;
40997;SDS011;26740;45.944;12.480;2023-05-07T14:01:21;5.70;;;4.07;;
40997;SDS011;26740;45.944;12.480;2023-05-07T14:03:47;5.82;;;4.47;;
40997;SDS011;26740;45.944;12.480;2023-05-07T14:06:12;5.38;;;3.63;;
40997;SDS011;26740;45.944;12.480;2023-05-07T14:08:37;4.10;;;3.80;;
40997;SDS011;26740;45.944;12.480;2023-05-07T14:11:02;5.05;;;4.28;;
40997;SDS011;26740;45.944;12.480;2023-05-07T14:13:28;5.25;;;3.63;;
40997;SDS011;26740;45.944;12.480;2023-05-07T14:15:55;4.90;;;4.50;;
40997;SDS011;26740;45.944;12.480;2023-05-07T14:18:21;4.10;;;3.47;;
40997;SDS011;26740;45.944;12.480;2023-05-07T14:20:46;4.50;;;4.10;;
40997;SDS011;26740;45.944;12.480;2023-05-07T14:23:13;3.03;;;2.83;;
40997;SDS011;26740;45.944;12.480;2023-05-07T14:25:39;3.55;;;3.30;;
40997;SDS011;26740;45.944;12.480;2023-05-07T14:28:04;4.50;;;3.88;;
40997;SDS011;26740;45.944;12.480;2023-05-07T14:30:30;6.88;;;4.55;;
40997;SDS011;26740;45.944;12.480;2023-05-07T14:32:55;4.63;;;4.20;;
40997;SDS011;26740;45.944;12.480;2023-05-07T14:35:20;4.78;;;4.10;;
40997;SDS011;26740;45.944;12.480;2023-05-07T14:37:46;6.38;;;4.13;;
40997;SDS011;26740;45.944;12.480;2023-05-07T14:40:11;5.55;;;4.03;;
40997;SDS011;26740;45.944;12.480;2023-05-07T14:42:37;4.05;;;3.75;;
40997;SDS011;26740;45.944;12.480;2023-05-07T14:45:02;6.00;;;3.40;;
40997;SDS011;26740;45.944;12.480;2023-05-07T14:47:27;8.50;;;4.22;;
40997;SDS011;26740;45.944;12.480;2023-05-07T14:49:53;4.25;;;3.83;;
40997;SDS011;26740;45.944;12.480;2023-05-07T14:52:19;6.10;;;3.97;;